createdAt,value
2018-11-13T04:06:35.883Z,986.44
2018-11-13T04:07:35.816Z,986.39
2018-11-13T04:08:35.774Z,986.38
2018-11-13T04:09:35.733Z,986.34
2018-11-13T04:10:35.686Z,986.31
2018-11-13T04:11:35.645Z,986.33
2018-11-13T04:12:35.603Z,986.32
2018-11-13T04:13:35.559Z,986.33
2018-11-13T04:14:35.529Z,986.35
2018-11-13T04:15:35.484Z,986.30
2018-11-13T04:16:35.444Z,986.24
2018-11-13T04:17:35.404Z,986.18
2018-11-13T04:18:35.355Z,986.19
2018-11-13T04:19:35.318Z,986.26
2018-11-13T04:20:35.278Z,986.29
2018-11-13T04:21:35.239Z,986.39
2018-11-13T04:22:35.204Z,986.45
2018-11-13T04:23:35.161Z,986.50
2018-11-13T04:24:35.121Z,986.54
2018-11-13T04:25:35.077Z,986.47
2018-11-13T04:26:35.045Z,986.49
2018-11-13T04:27:35.009Z,986.59
2018-11-13T04:28:34.964Z,986.75
2018-11-13T04:29:34.925Z,986.82
2018-11-13T04:30:34.935Z,986.85
2018-11-13T04:31:34.853Z,986.88
2018-11-13T04:32:34.810Z,986.85
2018-11-13T04:33:34.762Z,986.85
2018-11-13T04:34:34.730Z,986.90
2018-11-13T04:35:34.689Z,986.94
2018-11-13T04:36:34.650Z,986.99
2018-11-13T04:37:34.611Z,986.99
2018-11-13T04:38:34.567Z,986.98
2018-11-13T04:39:34.529Z,986.93
2018-11-13T04:40:34.493Z,986.88
2018-11-13T04:41:34.516Z,986.92
2018-11-13T04:42:41.477Z,986.89
2018-11-13T04:43:34.477Z,986.87
2018-11-13T04:44:39.065Z,986.93
2018-11-13T04:45:35.879Z,986.91
2018-11-13T04:47:35.090Z,986.92
2018-11-13T04:48:37.245Z,986.88
2018-11-13T04:49:35.155Z,986.93
2018-11-13T10:25:10.693Z,990.53
2018-11-13T10:26:20.624Z,990.51
2018-11-13T10:30:51.155Z,990.64
2018-11-13T10:31:50.650Z,990.68
2018-11-13T10:32:37.661Z,990.64
2018-11-13T10:33:36.956Z,990.68
2018-11-13T10:41:03.227Z,990.78
2018-11-13T10:42:03.052Z,990.82
2018-11-13T10:43:03.022Z,990.83
2018-11-13T10:44:02.968Z,990.80
2018-11-13T10:45:02.930Z,990.90
2018-11-13T10:46:02.902Z,990.85
2018-11-13T10:47:02.860Z,990.85
2018-11-13T10:48:02.817Z,990.86
2018-11-13T10:49:02.796Z,990.87
2018-11-13T10:50:02.747Z,990.87
2018-11-13T10:51:02.702Z,990.87
2018-11-13T10:52:02.664Z,990.95
2018-11-13T10:53:02.624Z,990.94
2018-11-13T10:54:02.594Z,990.94
2018-11-13T10:55:02.555Z,990.94
2018-11-13T10:56:02.517Z,991.07
2018-11-13T10:57:02.479Z,991.03
2018-11-13T10:58:02.434Z,990.99
2018-11-13T10:59:02.398Z,991.01
2018-11-13T11:00:02.362Z,990.94
2018-11-13T11:01:02.327Z,990.99
2018-11-13T11:02:02.284Z,990.97
2018-11-13T11:03:02.434Z,990.96
2018-11-13T11:04:02.210Z,990.89
2018-11-13T11:05:02.169Z,990.89
2018-11-13T11:06:02.139Z,990.93
2018-11-13T11:07:02.098Z,990.88
2018-11-13T11:08:02.069Z,990.93
2018-11-13T11:09:02.027Z,990.79
2018-11-13T11:10:01.987Z,990.85
2018-11-13T11:11:01.949Z,990.82
2018-11-13T11:12:01.910Z,990.82
2018-11-13T11:13:01.929Z,990.82
2018-11-13T11:14:02.029Z,990.84
2018-11-13T11:15:01.802Z,990.90
2018-11-13T11:16:01.763Z,990.88
2018-11-13T11:17:01.721Z,990.83
2018-11-13T11:18:01.773Z,990.80
2018-11-13T11:19:01.734Z,990.82
2018-11-13T11:20:01.614Z,990.81
2018-11-13T11:21:01.580Z,990.81
2018-11-13T11:22:01.537Z,990.92
2018-11-13T11:23:01.528Z,990.86
2018-11-13T11:24:01.550Z,990.99
2018-11-13T11:25:01.436Z,990.96
2018-11-13T11:26:01.394Z,990.90
2018-11-13T11:27:01.355Z,990.85
2018-11-13T11:28:01.327Z,990.84
2018-11-13T11:29:01.284Z,990.87
2018-11-13T11:30:01.238Z,990.93
2018-11-13T11:31:01.297Z,990.95
2018-11-13T11:32:01.175Z,990.95
2018-11-13T11:33:01.153Z,990.96
2018-11-13T11:34:01.091Z,990.98
2018-11-13T11:35:01.054Z,990.96
2018-11-13T11:36:01.016Z,990.98
2018-11-13T11:37:00.976Z,990.97
2018-11-13T11:38:00.946Z,990.99
2018-11-13T11:39:01.009Z,991.00
2018-11-13T11:40:00.869Z,991.00
2018-11-13T11:41:00.882Z,991.07
2018-11-13T11:42:00.794Z,991.11
2018-11-13T11:43:00.756Z,991.09
2018-11-13T11:44:00.720Z,991.08
2018-11-13T11:45:00.682Z,990.97
2018-11-13T11:46:00.649Z,991.08
2018-11-13T11:47:00.610Z,991.01
2018-11-13T11:48:00.570Z,991.02
2018-11-13T11:49:00.543Z,990.97
2018-11-13T11:50:00.500Z,990.94
2018-11-13T11:51:00.461Z,990.99
2018-11-13T11:52:00.423Z,991.01
2018-11-13T11:53:00.388Z,991.01
2018-11-13T11:54:00.389Z,990.96
2018-11-13T11:55:00.309Z,990.98
2018-11-13T11:56:00.272Z,990.98
2018-11-13T11:57:00.233Z,990.94
2018-11-13T11:58:00.202Z,990.96
2018-11-13T11:59:00.163Z,991.04
2018-11-13T12:00:00.125Z,991.08
2018-11-13T12:01:00.096Z,991.12
2018-11-13T12:02:00.091Z,991.10
2018-11-13T12:03:00.016Z,991.11
2018-11-13T12:03:59.975Z,991.14
2018-11-13T12:04:59.944Z,991.16
2018-11-13T12:05:59.900Z,991.17
2018-11-13T12:06:59.862Z,991.25
2018-11-13T12:07:59.837Z,991.25
2018-11-13T12:08:59.784Z,991.27
2018-11-13T12:09:59.755Z,991.28
2018-11-13T12:10:59.719Z,991.27
2018-11-13T12:11:59.838Z,991.29
2018-11-13T12:12:59.641Z,991.27
2018-11-13T12:13:59.599Z,991.26
2018-11-13T12:14:59.570Z,991.27
2018-11-13T12:15:59.526Z,991.22
2018-11-13T12:16:59.488Z,991.25
2018-11-13T12:17:59.459Z,991.29
2018-11-13T12:18:59.495Z,991.22
2018-11-13T12:19:59.389Z,991.28
2018-11-13T12:20:59.342Z,991.26
2018-11-13T12:21:59.308Z,991.24
2018-11-13T12:22:59.269Z,991.33
2018-11-13T12:23:59.231Z,991.35
2018-11-13T12:24:59.196Z,991.34
2018-11-13T12:25:59.218Z,991.41
2018-11-13T12:26:59.119Z,991.33
2018-11-13T12:27:59.080Z,991.33
2018-11-13T12:28:59.042Z,991.34
2018-11-13T12:29:59.011Z,991.34
2018-11-13T12:30:58.973Z,991.36
2018-11-13T12:31:58.934Z,991.33
2018-11-13T12:32:58.900Z,991.35
2018-11-13T12:33:58.857Z,991.35
2018-11-13T12:34:58.826Z,991.36
2018-11-13T12:35:58.789Z,991.35
2018-11-13T12:36:58.754Z,991.39
2018-11-13T12:37:58.709Z,991.42
2018-11-13T12:38:58.675Z,991.33
2018-11-13T12:39:58.636Z,991.38
2018-11-13T12:40:58.646Z,991.34
2018-11-13T12:41:58.566Z,991.39
2018-11-13T12:42:58.528Z,991.54
2018-11-13T12:43:58.490Z,991.47
2018-11-13T12:44:58.456Z,991.40
2018-11-13T12:45:58.413Z,991.48
2018-11-13T12:46:58.422Z,991.48
2018-11-13T12:47:58.340Z,991.40
2018-11-13T12:48:58.392Z,991.48
2018-11-13T12:49:58.274Z,991.42
2018-11-13T12:50:58.235Z,991.43
2018-11-13T12:51:58.192Z,991.45
2018-11-13T12:52:58.155Z,991.43
2018-11-13T12:53:58.475Z,991.46
2018-11-13T12:54:58.090Z,991.47
2018-11-13T12:55:58.088Z,991.49
2018-11-13T12:56:58.009Z,991.46
2018-11-13T12:57:58.146Z,991.49
2018-11-13T12:58:57.942Z,991.46
2018-11-13T12:59:57.895Z,991.47
2018-11-13T13:00:57.857Z,991.48
2018-11-13T13:01:57.831Z,991.49
2018-11-13T13:02:57.788Z,991.55
2018-11-13T13:03:57.749Z,991.53
2018-11-13T13:04:57.715Z,991.49
2018-11-13T13:05:57.672Z,991.47
2018-11-13T13:06:57.636Z,991.50
2018-11-13T13:07:57.600Z,991.51
2018-11-13T13:08:57.570Z,991.47
2018-11-13T13:09:57.522Z,991.47
2018-11-13T13:10:57.487Z,991.52
2018-11-13T13:11:57.449Z,991.53
2018-11-13T13:12:57.411Z,991.52
2018-11-13T13:13:57.381Z,991.56
2018-11-13T13:14:57.437Z,991.52
2018-11-13T13:15:57.303Z,991.44
2018-11-13T13:16:57.268Z,991.53
2018-11-13T13:17:57.225Z,991.55
2018-11-13T13:18:57.258Z,991.61
2018-11-13T13:19:57.161Z,991.58
2018-11-13T13:20:57.116Z,991.58
2018-11-13T13:21:57.087Z,991.58
2018-11-13T13:22:57.051Z,991.61
2018-11-13T13:23:57.004Z,991.65
2018-11-13T13:24:56.965Z,991.66
2018-11-13T13:25:57.050Z,991.67
2018-11-13T13:26:56.909Z,991.77
2018-11-13T13:27:56.859Z,991.73
2018-11-13T13:28:56.825Z,991.77
2018-11-13T13:29:56.780Z,991.74
2018-11-13T13:30:56.746Z,991.75
2018-11-13T13:31:56.790Z,991.74
2018-11-13T13:32:56.668Z,991.75
2018-11-13T13:33:56.638Z,991.74
2018-11-13T13:34:56.603Z,991.77
2018-11-13T13:35:56.562Z,991.74
2018-11-13T13:36:56.527Z,991.77
2018-11-13T13:37:56.485Z,991.82
2018-11-13T13:38:56.452Z,991.77
2018-11-13T13:39:56.413Z,991.75
2018-11-13T13:40:56.381Z,991.84
2018-11-13T13:41:56.336Z,991.84
2018-11-13T13:42:56.301Z,991.80
2018-11-13T13:43:56.262Z,991.75
2018-11-13T13:44:56.224Z,991.81
2018-11-13T13:45:56.194Z,991.83
2018-11-13T13:46:56.155Z,991.83
2018-11-13T13:47:56.117Z,991.82
2018-11-13T13:48:56.083Z,991.88
2018-11-13T13:49:56.039Z,991.84
2018-11-13T13:50:56.003Z,991.90
2018-11-13T13:51:55.965Z,991.90
2018-11-13T13:52:55.927Z,991.93
2018-11-13T13:53:56.083Z,991.92
2018-11-13T13:54:55.856Z,991.92
2018-11-13T13:55:55.816Z,991.95
2018-11-13T13:56:55.787Z,991.92
2018-11-13T13:57:55.749Z,991.93
2018-11-13T13:58:55.709Z,992.01
2018-11-13T13:59:55.885Z,992.01
2018-11-13T14:00:55.697Z,992.00
2018-11-13T14:01:55.593Z,992.02
2018-11-13T14:02:55.558Z,992.04
2018-11-13T14:03:55.526Z,991.99
2018-11-13T14:04:55.488Z,991.96
2018-11-13T14:05:55.494Z,992.10
2018-11-13T14:06:55.412Z,992.00
2018-11-13T14:07:55.375Z,991.99
2018-11-13T14:08:55.343Z,992.03
2018-11-13T14:09:55.301Z,991.99
2018-11-13T14:10:55.265Z,992.09
2018-11-13T14:11:55.228Z,992.11
2018-11-13T14:12:55.192Z,992.13
2018-11-13T14:13:55.147Z,992.10
2018-11-13T14:14:55.232Z,992.12
2018-11-13T14:15:55.083Z,992.13
2018-11-13T14:16:55.041Z,992.09
2018-11-13T14:17:55.033Z,992.16
2018-11-13T14:18:54.969Z,992.18
2018-11-13T14:19:54.929Z,992.22
2018-11-13T14:20:54.937Z,992.21
2018-11-13T14:21:54.852Z,992.21
2018-11-13T14:22:54.820Z,992.24
2018-11-13T14:23:54.778Z,992.19
2018-11-13T14:24:54.740Z,992.28
2018-11-13T14:25:54.709Z,992.27
2018-11-13T14:26:54.715Z,992.26
2018-11-13T14:27:54.628Z,992.24
2018-11-13T14:28:54.597Z,992.22
2018-11-13T14:29:54.556Z,992.30
2018-11-13T14:30:54.518Z,992.28
2018-11-13T14:31:54.481Z,992.33
2018-11-13T14:32:54.443Z,992.37
2018-11-13T14:33:54.402Z,992.37
2018-11-13T14:34:54.364Z,992.31
2018-11-13T14:35:54.329Z,992.37
2018-11-13T14:36:54.293Z,992.43
2018-11-13T14:37:54.250Z,992.43
2018-11-13T14:38:54.214Z,992.43
2018-11-13T14:39:54.177Z,992.54
2018-11-13T14:40:54.137Z,992.46
2018-11-13T14:41:54.106Z,992.48
2018-11-13T14:42:54.066Z,992.41
2018-11-13T14:43:54.026Z,992.49
2018-11-13T14:44:54.010Z,992.52
2018-11-13T14:45:53.955Z,992.55
2018-11-13T14:46:53.917Z,992.57
2018-11-13T14:47:53.878Z,992.58
2018-11-13T14:48:53.843Z,992.58
2018-11-13T14:49:53.799Z,992.56
2018-11-13T14:50:53.763Z,992.69
2018-11-13T14:51:53.727Z,992.64
2018-11-13T14:52:53.688Z,992.68
2018-11-13T14:53:53.654Z,992.73
2018-11-13T14:54:53.615Z,992.73
2018-11-13T14:55:53.575Z,992.74
2018-11-13T14:56:53.544Z,992.73
2018-11-13T14:57:53.497Z,992.70
2018-11-13T14:58:53.461Z,992.79
2018-11-13T14:59:53.426Z,992.74
2018-11-13T15:00:53.390Z,992.73
2018-11-13T15:01:53.357Z,992.77
2018-11-13T15:02:53.311Z,992.76
2018-11-13T15:03:53.276Z,992.77
2018-11-13T15:04:53.234Z,992.81
2018-11-13T15:05:53.201Z,992.83
2018-11-13T15:06:53.162Z,992.86
2018-11-13T15:07:53.164Z,992.85
2018-11-13T15:08:53.123Z,992.90
2018-11-13T15:09:53.054Z,992.96
2018-11-13T15:10:53.010Z,992.97
2018-11-13T15:11:52.970Z,992.98
2018-11-13T15:12:52.930Z,993.01
2018-11-13T15:13:52.899Z,992.99
2018-11-13T15:14:52.860Z,993.02
2018-11-13T15:15:52.817Z,992.99
2018-11-13T15:16:52.777Z,993.04
2018-11-13T15:17:52.745Z,993.04
2018-11-13T15:18:52.710Z,993.04
2018-11-13T15:19:52.668Z,993.00
2018-11-13T15:20:52.633Z,993.04
2018-11-13T15:21:52.587Z,993.10
2018-11-13T15:22:52.551Z,993.07
2018-11-13T15:23:52.513Z,993.11
2018-11-13T15:24:52.474Z,993.09
2018-11-13T15:25:52.440Z,993.10
2018-11-13T15:26:52.403Z,993.16
2018-11-13T15:27:52.363Z,993.17
2018-11-13T15:28:52.327Z,993.19
2018-11-13T15:29:52.284Z,993.19
2018-11-13T15:30:52.264Z,993.19
2018-11-13T15:31:52.210Z,993.17
2018-11-13T15:32:52.176Z,993.24
2018-11-13T15:33:52.131Z,993.27
2018-11-13T15:34:52.102Z,993.24
2018-11-13T15:35:52.058Z,993.25
2018-11-13T15:36:52.095Z,993.25
2018-11-13T15:37:51.988Z,993.25
2018-11-13T15:38:51.945Z,993.27
2018-11-13T15:39:51.906Z,993.27
2018-11-13T15:40:51.871Z,993.32
2018-11-13T15:41:51.826Z,993.30
2018-11-13T15:42:51.790Z,993.32
2018-11-13T15:43:51.752Z,993.34
2018-11-13T15:44:51.829Z,993.33
2018-11-13T15:45:51.679Z,993.31
2018-11-13T15:46:51.640Z,993.32
2018-11-13T15:47:51.599Z,993.32
2018-11-13T15:48:51.564Z,993.34
2018-11-13T15:49:51.530Z,993.39
2018-11-13T15:50:51.490Z,993.40
2018-11-13T15:51:51.503Z,993.37
2018-11-13T16:04:11.872Z,993.59
2018-11-13T16:05:11.800Z,993.57
2018-11-13T16:06:11.781Z,993.59
2018-11-13T16:07:11.721Z,993.61
2018-11-13T16:08:11.676Z,993.64
2018-11-13T16:09:11.635Z,993.66
2018-11-13T16:10:11.675Z,993.69
2018-11-13T16:11:11.557Z,993.66
2018-11-13T16:12:11.514Z,993.69
2018-11-13T16:13:11.474Z,993.74
2018-11-13T16:14:11.436Z,993.72
2018-11-13T16:15:11.498Z,993.71
2018-11-13T16:16:11.352Z,993.67
2018-11-13T16:17:11.312Z,993.72
2018-11-13T16:18:11.273Z,993.70
2018-11-13T16:19:11.240Z,993.70
2018-11-13T16:20:11.199Z,993.74
2018-11-13T16:21:11.169Z,993.75
2018-11-13T16:22:11.123Z,993.77
2018-11-13T16:23:11.079Z,993.80
2018-11-13T16:24:11.039Z,993.81
2018-11-13T16:25:11.002Z,993.82
2018-11-13T16:26:10.966Z,993.82
2018-11-13T16:27:10.922Z,993.84
2018-11-13T16:28:10.883Z,993.90
2018-11-13T16:29:10.955Z,993.89
2018-11-13T16:30:10.873Z,993.89
2018-11-13T16:31:10.774Z,993.86
2018-11-13T16:32:10.743Z,993.91
2018-11-13T16:33:10.692Z,993.91
2018-11-13T16:34:10.663Z,993.93
2018-11-13T16:35:10.612Z,993.92
2018-11-13T16:36:10.596Z,993.96
2018-11-13T16:37:10.543Z,993.97
2018-11-13T16:38:10.593Z,993.95
2018-11-13T16:39:10.476Z,994.01
2018-11-13T16:40:10.420Z,993.99
2018-11-13T16:41:19.073Z,993.99
2018-11-13T16:43:14.830Z,994.08
2018-11-13T16:44:14.741Z,994.08
2018-11-13T16:45:14.703Z,994.07
2018-11-13T16:46:14.660Z,994.09
2018-11-13T16:47:14.623Z,994.14
2018-11-13T16:48:14.691Z,994.15
2018-11-13T16:49:15.385Z,994.15
2018-11-13T16:50:14.510Z,994.18
2018-11-13T16:51:14.467Z,994.18
2018-11-13T16:52:14.429Z,994.13
2018-11-13T16:53:14.395Z,994.15
2018-11-13T16:54:14.380Z,994.15
2018-11-13T16:55:14.315Z,994.17
2018-11-13T16:56:14.275Z,994.17
2018-11-13T16:57:14.242Z,994.21
2018-11-13T16:58:14.222Z,994.18
2018-11-13T16:59:14.162Z,994.22
2018-11-13T17:00:14.132Z,994.23
2018-11-13T17:01:14.132Z,994.22
2018-11-13T17:02:14.065Z,994.24
2018-11-13T17:03:14.009Z,994.26
2018-11-13T17:04:13.966Z,994.23
2018-11-13T17:05:13.990Z,994.25
2018-11-13T17:06:13.985Z,994.26
2018-11-13T17:07:13.938Z,994.28
2018-11-13T17:08:13.811Z,994.26
2018-11-13T17:09:13.772Z,994.25
2018-11-13T17:10:13.733Z,994.28
2018-11-13T17:11:13.728Z,994.28
2018-11-13T17:12:13.658Z,994.30
2018-11-13T17:13:13.624Z,994.30
2018-11-13T17:14:13.604Z,994.29
2018-11-13T17:15:13.583Z,994.30
2018-11-13T17:16:13.516Z,994.31
2018-11-13T17:17:13.464Z,994.31
2018-11-13T17:18:13.726Z,994.27
2018-11-13T17:19:13.385Z,994.30
2018-11-13T17:20:13.372Z,994.31
2018-11-13T17:21:13.318Z,994.31
2018-11-13T17:22:13.292Z,994.32
2018-11-13T17:23:13.231Z,994.34
2018-11-13T17:24:13.194Z,994.31
2018-11-13T17:25:13.159Z,994.29
2018-11-13T17:26:13.123Z,994.28
2018-11-13T17:27:13.100Z,994.28
2018-11-13T17:28:13.038Z,994.28
2018-11-13T17:29:13.048Z,994.30
2018-11-13T17:30:12.988Z,994.34
2018-11-13T17:31:12.922Z,994.36
2018-11-13T17:32:12.884Z,994.32
2018-11-13T17:33:12.855Z,994.31
2018-11-13T17:34:12.810Z,994.32
2018-11-13T17:35:12.769Z,994.32
2018-11-13T17:36:12.758Z,994.33
2018-11-13T17:37:12.696Z,994.33
2018-11-13T17:38:12.765Z,994.32
2018-11-13T17:39:12.641Z,994.33
2018-11-13T17:40:12.580Z,994.32
2018-11-13T17:41:12.533Z,994.34
2018-11-13T17:42:12.494Z,994.27
2018-11-13T17:43:12.487Z,994.33
2018-11-13T17:44:12.483Z,994.32
2018-11-13T17:45:12.384Z,994.32
2018-11-13T17:46:12.356Z,994.35
2018-11-13T17:47:12.304Z,994.35
2018-11-13T17:48:12.262Z,994.32
2018-11-13T17:49:12.224Z,994.36
2018-11-13T17:50:12.184Z,994.37
2018-11-13T17:51:12.145Z,994.37
2018-11-13T17:52:12.111Z,994.37
2018-11-13T17:53:12.072Z,994.35
2018-11-13T17:54:12.026Z,994.36
2018-11-13T17:55:11.989Z,994.33
2018-11-13T17:56:11.953Z,994.34
2018-11-13T17:57:11.916Z,994.35
2018-11-13T17:58:11.878Z,994.38
2018-11-13T17:59:11.841Z,994.41
2018-11-13T18:00:11.794Z,994.37
2018-11-13T18:01:11.754Z,994.38
2018-11-13T18:02:11.731Z,994.37
2018-11-13T18:03:11.702Z,994.38
2018-11-13T18:04:11.640Z,994.38
2018-11-13T18:05:11.604Z,994.40
2018-11-13T18:06:11.565Z,994.39
2018-11-13T18:07:11.524Z,994.39
2018-11-13T18:08:11.482Z,994.41
2018-11-13T18:09:11.455Z,994.41
2018-11-13T18:10:11.408Z,994.40
2018-11-13T18:11:11.487Z,994.42
2018-11-13T18:12:11.326Z,994.41
2018-11-13T18:13:11.288Z,994.43
2018-11-13T18:14:11.387Z,994.46
2018-11-13T18:15:11.209Z,994.41
2018-11-13T18:16:11.206Z,994.46
2018-11-13T18:17:11.201Z,994.46
2018-11-13T18:18:11.097Z,994.43
2018-11-13T18:19:11.058Z,994.44
2018-11-13T18:20:11.013Z,994.48
2018-11-13T18:21:10.973Z,994.47
2018-11-13T18:22:11.092Z,994.48
2018-11-13T18:23:10.900Z,994.48
2018-11-13T18:24:10.862Z,994.52
2018-11-13T18:25:10.822Z,994.54
2018-11-13T18:26:10.777Z,994.54
2018-11-13T18:27:10.739Z,994.53
2018-11-13T18:28:10.734Z,994.56
2018-11-13T18:29:10.668Z,994.56
2018-11-13T18:30:10.629Z,994.54
2018-11-13T18:31:10.584Z,994.55
2018-11-13T18:32:10.562Z,994.60
2018-11-13T18:33:10.513Z,994.57
2018-11-13T18:34:10.640Z,994.57
2018-11-13T18:35:10.444Z,994.60
2018-11-13T18:36:10.525Z,994.63
2018-11-13T18:37:10.373Z,994.58
2018-11-13T18:38:10.445Z,994.57
2018-11-13T18:39:10.523Z,994.63
2018-11-13T18:40:10.282Z,994.62
2018-11-13T18:41:10.218Z,994.64
2018-11-13T18:42:10.184Z,994.67
2018-11-13T18:43:10.125Z,994.69
2018-11-13T18:44:10.090Z,994.70
2018-11-13T18:45:10.141Z,994.72
2018-11-13T18:46:10.003Z,994.70
2018-11-13T18:47:09.987Z,994.74
2018-11-13T18:48:09.924Z,994.70
2018-11-13T18:49:09.925Z,994.76
2018-11-13T18:50:09.952Z,994.74
2018-11-13T18:51:09.879Z,994.82
2018-11-13T18:52:09.789Z,994.81
2018-11-13T18:53:09.755Z,994.84
2018-11-13T18:54:09.729Z,994.81
2018-11-13T18:55:09.661Z,994.81
2018-11-13T18:56:09.721Z,994.87
2018-11-13T18:57:09.597Z,994.84
2018-11-13T18:58:09.544Z,994.84
2018-11-13T18:59:09.629Z,994.84
2018-11-13T19:00:09.508Z,994.80
2018-11-13T19:01:09.499Z,994.81
2018-11-13T19:02:09.420Z,994.83
2018-11-13T19:03:09.349Z,994.82
2018-11-13T19:04:09.319Z,994.83
2018-11-13T19:05:09.321Z,994.87
2018-11-13T19:06:09.238Z,994.86
2018-11-13T19:07:09.257Z,994.88
2018-11-13T19:08:09.161Z,994.89
2018-11-13T19:09:09.132Z,994.90
2018-11-13T19:10:09.125Z,994.91
2018-11-13T19:11:09.058Z,994.95
2018-11-13T19:12:09.098Z,994.93
2018-11-13T19:13:09.030Z,994.95
2018-11-13T19:14:09.184Z,995.01
2018-11-13T19:15:08.952Z,994.96
2018-11-13T19:16:08.820Z,995.01
2018-11-13T19:17:08.823Z,995.01
2018-11-13T19:18:08.830Z,995.00
2018-11-13T19:19:08.751Z,995.02
2018-11-13T19:20:08.805Z,994.99
2018-11-13T19:21:08.669Z,994.98
2018-11-13T19:22:08.658Z,995.01
2018-11-13T19:23:08.616Z,995.02
2018-11-13T19:24:08.581Z,994.99
2018-11-13T19:25:08.524Z,994.99
2018-11-13T19:26:08.468Z,995.00
2018-11-13T19:27:08.434Z,995.01
2018-11-13T19:28:08.430Z,995.03
2018-11-13T19:29:08.314Z,995.01
2018-11-13T19:30:08.371Z,995.04
2018-11-13T19:31:08.329Z,995.03
2018-11-13T19:32:08.210Z,995.06
2018-11-13T19:33:08.194Z,995.08
2018-11-13T19:34:08.140Z,995.09
2018-11-13T19:38:06.364Z,995.06
2018-11-13T19:38:31.154Z,995.13
2018-11-13T19:39:31.107Z,995.13
2018-11-13T19:40:31.136Z,995.16
2018-11-13T19:41:31.024Z,995.14
2018-11-13T19:42:30.984Z,995.12
2018-11-13T19:43:30.946Z,995.15
2018-11-13T19:46:03.222Z,995.15
2018-11-13T19:47:03.079Z,995.14
2018-11-13T19:48:02.995Z,995.15
2018-11-13T19:49:02.990Z,995.13
2018-11-13T19:50:02.915Z,995.11
2018-11-13T19:51:02.869Z,995.15
2018-11-13T19:52:02.834Z,995.17
2018-11-13T19:53:02.797Z,995.17
2018-11-13T19:54:02.879Z,995.15
2018-11-13T19:55:02.721Z,995.17
2018-11-13T19:56:02.693Z,995.19
2018-11-13T19:57:02.648Z,995.17
2018-11-13T19:58:02.677Z,995.20
2018-11-13T19:59:02.559Z,995.16
2018-11-13T20:00:02.525Z,995.19
2018-11-13T20:01:02.545Z,995.18
2018-11-13T20:02:02.470Z,995.21
2018-11-13T20:03:02.419Z,995.25
2018-11-13T20:04:02.549Z,995.23
2018-11-13T20:05:02.353Z,995.27
2018-11-13T20:06:02.298Z,995.29
2018-11-13T20:07:02.256Z,995.32
2018-11-13T20:08:02.242Z,995.33
2018-11-13T20:09:02.185Z,995.30
2018-11-13T20:10:02.193Z,995.35
2018-11-13T20:11:02.114Z,995.32
2018-11-13T20:12:02.062Z,995.31
2018-11-13T20:13:02.042Z,995.30
2018-11-13T20:14:01.986Z,995.27
2018-11-13T20:15:01.930Z,995.29
2018-11-13T20:16:02.026Z,995.31
2018-11-13T20:17:01.978Z,995.32
2018-11-13T20:18:01.833Z,995.32
2018-11-13T20:19:01.804Z,995.37
2018-11-13T20:20:01.769Z,995.39
2018-11-13T20:21:01.706Z,995.36
2018-11-13T20:22:01.661Z,995.41
2018-11-13T20:23:01.633Z,995.40
2018-11-13T20:24:01.574Z,995.40
2018-11-13T20:25:01.588Z,995.41
2018-11-13T20:26:01.525Z,995.42
2018-11-13T20:27:01.473Z,995.42
2018-11-13T20:28:01.439Z,995.41
2018-11-13T20:29:01.393Z,995.43
2018-11-13T20:30:01.335Z,995.43
2018-11-13T20:31:01.334Z,995.41
2018-11-13T20:32:01.280Z,995.41
2018-11-13T20:33:01.240Z,995.38
2018-11-13T20:34:01.195Z,995.45
2018-11-13T20:35:01.135Z,995.43
2018-11-13T20:36:01.105Z,995.39
2018-11-13T20:37:01.081Z,995.45
2018-11-13T20:38:01.033Z,995.48
2018-11-13T20:39:01.012Z,995.45
2018-11-13T20:40:00.949Z,995.47
2018-11-13T20:41:00.917Z,995.48
2018-11-13T20:42:00.889Z,995.48
2018-11-13T20:43:00.851Z,995.49
2018-11-13T20:44:00.802Z,995.50
2018-11-13T20:45:00.757Z,995.45
2018-11-13T20:46:00.727Z,995.52
2018-11-13T20:47:00.665Z,995.46
2018-11-13T20:48:00.657Z,995.49
2018-11-13T20:49:00.610Z,995.47
2018-11-13T20:50:00.561Z,995.49
2018-11-13T20:51:00.516Z,995.49
2018-11-13T20:52:00.473Z,995.48
2018-11-13T20:53:00.458Z,995.45
2018-11-13T20:54:00.426Z,995.46
2018-11-13T20:55:00.442Z,995.48
2018-11-13T20:56:00.329Z,995.50
2018-11-13T20:57:00.281Z,995.52
2018-11-13T20:58:00.257Z,995.51
2018-11-13T20:59:00.205Z,995.49
2018-11-13T21:00:00.176Z,995.57
2018-11-13T21:01:00.227Z,995.56
2018-11-13T21:02:00.181Z,995.56
2018-11-13T21:03:00.035Z,995.54
2018-11-13T21:04:00.011Z,995.50
2018-11-13T21:04:59.957Z,995.54
2018-11-13T21:05:59.983Z,995.55
2018-11-13T21:06:59.908Z,995.59
2018-11-13T21:07:59.856Z,995.58
2018-11-13T21:08:59.832Z,995.57
2018-11-13T21:09:59.768Z,995.55
2018-11-13T21:11:00.231Z,995.56
2018-11-13T21:11:59.763Z,995.54
2018-11-13T21:12:59.656Z,995.54
2018-11-13T21:13:59.636Z,995.55
2018-11-13T21:14:59.580Z,995.54
2018-11-13T21:15:59.544Z,995.51
2018-11-13T21:16:59.632Z,995.53
2018-11-13T21:17:59.448Z,995.55
2018-11-13T21:18:59.420Z,995.53
2018-11-13T21:19:59.387Z,995.52
2018-11-13T21:20:59.336Z,995.57
2018-11-13T21:21:59.301Z,995.52
2018-11-13T21:22:59.261Z,995.54
2018-11-13T21:23:59.243Z,995.56
2018-11-13T21:24:59.184Z,995.52
2018-11-13T21:25:59.133Z,995.52
2018-11-13T21:26:59.093Z,995.55
2018-11-13T21:27:59.067Z,995.54
2018-11-13T21:28:59.068Z,995.58
2018-11-13T21:29:59.072Z,995.55
2018-11-13T21:30:59.010Z,995.55
2018-11-13T21:31:58.912Z,995.59
2018-11-13T21:32:58.920Z,995.58
2018-11-13T21:33:58.841Z,995.54
2018-11-13T21:34:58.783Z,995.57
2018-11-13T21:35:58.776Z,995.56
2018-11-13T21:36:58.766Z,995.55
2018-11-13T21:37:58.678Z,995.57
2018-11-13T21:38:58.620Z,995.58
2018-11-13T21:39:58.593Z,995.57
2018-11-13T21:40:58.552Z,995.60
2018-11-13T21:41:58.518Z,995.59
2018-11-13T21:42:58.476Z,995.59
2018-11-13T21:43:58.427Z,995.59
2018-11-13T21:44:58.396Z,995.57
2018-11-13T21:45:58.351Z,995.57
2018-11-13T21:46:59.400Z,995.54
2018-11-13T21:47:58.283Z,995.58
2018-11-13T21:48:58.240Z,995.60
2018-11-13T21:49:58.278Z,995.60
2018-11-13T21:50:58.159Z,995.63
2018-11-13T21:51:58.117Z,995.58
2018-11-13T21:52:58.088Z,995.63
2018-11-13T21:53:58.046Z,995.60
2018-11-13T21:54:58.004Z,995.60
2018-11-13T21:55:57.938Z,995.60
2018-11-13T21:56:57.913Z,995.59
2018-11-13T21:57:57.879Z,995.58
2018-11-13T21:58:57.946Z,995.61
2018-11-13T21:59:57.785Z,995.59
2018-11-13T22:00:57.763Z,995.60
2018-11-13T22:01:57.709Z,995.56
2018-11-13T22:02:57.693Z,995.64
2018-11-13T22:03:57.786Z,995.62
2018-11-13T22:04:57.601Z,995.61
2018-11-13T22:05:57.832Z,995.64
2018-11-13T22:06:57.510Z,995.65
2018-11-13T22:07:57.493Z,995.67
2018-11-13T22:20:43.614Z,995.74
2018-11-13T22:21:43.047Z,995.74
2018-11-13T22:22:43.001Z,995.77
2018-11-13T22:23:42.954Z,995.78
2018-11-13T22:24:42.919Z,995.80
2018-11-13T22:25:42.874Z,995.77
2018-11-13T22:26:42.972Z,995.78
2018-11-13T22:27:42.942Z,995.77
2018-11-13T22:28:42.868Z,995.78
2018-11-13T22:29:42.718Z,995.77
2018-11-13T22:30:42.679Z,995.79
2018-11-13T22:31:42.629Z,995.80
2018-11-13T22:32:42.602Z,995.85
2018-11-13T22:33:42.546Z,995.78
2018-11-13T22:34:42.552Z,995.81
2018-11-13T22:35:42.472Z,995.85
2018-11-13T22:36:42.433Z,995.86
2018-11-13T22:37:42.396Z,995.84
2018-11-13T22:38:42.410Z,995.83
2018-11-13T22:39:42.327Z,995.85
2018-11-13T22:40:42.269Z,995.83
2018-11-13T22:41:42.236Z,995.81
2018-11-13T22:42:42.193Z,995.83
2018-11-13T22:43:42.158Z,995.76
2018-11-13T22:44:42.101Z,995.81
2018-11-13T22:45:42.071Z,995.82
2018-11-13T22:46:42.037Z,995.78
2018-11-13T22:47:41.991Z,995.76